sensor_id;sensor_type;location;lat;lon;timestamp;temperature;humidity
75500;DHT22;64076;51.466;7.260;2023-02-11T00:02:23;20.90;33.10
75500;DHT22;64076;51.466;7.260;2023-02-11T00:04:52;20.90;33.00
75500;DHT22;64076;51.466;7.260;2023-02-11T00:07:20;20.90;33.10
75500;DHT22;64076;51.466;7.260;2023-02-11T00:09:45;20.90;33.10
75500;DHT22;64076;51.466;7.260;2023-02-11T00:12:11;20.90;33.10
75500;DHT22;64076;51.466;7.260;2023-02-11T00:14:37;20.90;33.20
75500;DHT22;64076;51.466;7.260;2023-02-11T00:17:02;20.90;33.20
75500;DHT22;64076;51.466;7.260;2023-02-11T00:19:28;20.90;33.20
75500;DHT22;64076;51.466;7.260;2023-02-11T00:21:53;20.80;33.20
75500;DHT22;64076;51.466;7.260;2023-02-11T00:24:19;20.80;33.20
75500;DHT22;64076;51.466;7.260;2023-02-11T00:26:44;20.80;33.20
75500;DHT22;64076;51.466;7.260;2023-02-11T00:29:10;20.80;33.20
75500;DHT22;64076;51.466;7.260;2023-02-11T00:31:35;20.80;33.20
75500;DHT22;64076;51.466;7.260;2023-02-11T00:34:01;20.80;33.30
75500;DHT22;64076;51.466;7.260;2023-02-11T00:36:28;20.80;33.30
75500;DHT22;64076;51.466;7.260;2023-02-11T00:38:54;20.80;33.30
75500;DHT22;64076;51.466;7.260;2023-02-11T00:41:21;20.80;33.20
75500;DHT22;64076;51.466;7.260;2023-02-11T00:43:47;20.80;33.30
75500;DHT22;64076;51.466;7.260;2023-02-11T00:46:14;20.80;33.30
75500;DHT22;64076;51.466;7.260;2023-02-11T00:48:40;20.90;33.30
75500;DHT22;64076;51.466;7.260;2023-02-11T00:51:05;20.90;33.30
75500;DHT22;64076;51.466;7.260;2023-02-11T00:53:31;20.80;33.30
75500;DHT22;64076;51.466;7.260;2023-02-11T00:55:57;20.90;33.30
75500;DHT22;64076;51.466;7.260;2023-02-11T00:58:22;20.90;33.30
75500;DHT22;64076;51.466;7.260;2023-02-11T01:00:48;20.90;33.30
75500;DHT22;64076;51.466;7.260;2023-02-11T01:03:14;20.90;33.30
75500;DHT22;64076;51.466;7.260;2023-02-11T01:05:39;20.90;33.30
75500;DHT22;64076;51.466;7.260;2023-02-11T01:08:05;20.80;33.30
75500;DHT22;64076;51.466;7.260;2023-02-11T01:10:31;20.80;33.40
75500;DHT22;64076;51.466;7.260;2023-02-11T01:12:57;20.80;33.40
75500;DHT22;64076;51.466;7.260;2023-02-11T01:15:22;20.80;33.40
75500;DHT22;64076;51.466;7.260;2023-02-11T01:17:48;20.90;33.40
75500;DHT22;64076;51.466;7.260;2023-02-11T01:20:17;20.80;33.40
75500;DHT22;64076;51.466;7.260;2023-02-11T01:22:43;20.80;33.40
75500;DHT22;64076;51.466;7.260;2023-02-11T01:25:08;20.80;33.40
75500;DHT22;64076;51.466;7.260;2023-02-11T01:27:34;20.80;33.40
75500;DHT22;64076;51.466;7.260;2023-02-11T01:30:00;20.80;33.50
75500;DHT22;64076;51.466;7.260;2023-02-11T01:32:26;20.80;33.50
75500;DHT22;64076;51.466;7.260;2023-02-11T01:34:52;20.80;33.40
75500;DHT22;64076;51.466;7.260;2023-02-11T01:37:17;20.80;33.50
75500;DHT22;64076;51.466;7.260;2023-02-11T01:39:43;20.80;33.50
75500;DHT22;64076;51.466;7.260;2023-02-11T01:44:41;20.80;33.50
75500;DHT22;64076;51.466;7.260;2023-02-11T01:47:07;20.80;33.50
75500;DHT22;64076;51.466;7.260;2023-02-11T01:49:37;20.80;33.60
75500;DHT22;64076;51.466;7.260;2023-02-11T01:57:28;20.80;33.50
75500;DHT22;64076;51.466;7.260;2023-02-11T02:02:36;20.80;33.60
75500;DHT22;64076;51.466;7.260;2023-02-11T02:12:44;20.80;33.60
75500;DHT22;64076;51.466;7.260;2023-02-11T02:36:33;20.80;33.70
75500;DHT22;64076;51.466;7.260;2023-02-11T02:39:05;20.80;33.80
75500;DHT22;64076;51.466;7.260;2023-02-11T02:41:34;20.80;33.70
75500;DHT22;64076;51.466;7.260;2023-02-11T02:44:00;20.80;33.70
75500;DHT22;64076;51.466;7.260;2023-02-11T02:46:30;20.80;33.80
75500;DHT22;64076;51.466;7.260;2023-02-11T02:48:56;20.80;33.80
75500;DHT22;64076;51.466;7.260;2023-02-11T02:51:45;20.80;33.80
75500;DHT22;64076;51.466;7.260;2023-02-11T03:00:31;20.80;33.90
75500;DHT22;64076;51.466;7.260;2023-02-11T03:05:47;20.80;33.90
75500;DHT22;64076;51.466;7.260;2023-02-11T03:08:28;20.80;33.90
75500;DHT22;64076;51.466;7.260;2023-02-11T03:10:55;20.80;33.90
75500;DHT22;64076;51.466;7.260;2023-02-11T03:13:26;20.80;33.90
75500;DHT22;64076;51.466;7.260;2023-02-11T03:15:55;20.80;33.90
75500;DHT22;64076;51.466;7.260;2023-02-11T03:18:23;20.80;33.90
75500;DHT22;64076;51.466;7.260;2023-02-11T03:20:52;20.80;33.90
75500;DHT22;64076;51.466;7.260;2023-02-11T03:28:46;20.80;33.90
75500;DHT22;64076;51.466;7.260;2023-02-11T03:31:19;20.80;33.90
75500;DHT22;64076;51.466;7.260;2023-02-11T03:34:02;20.80;33.90
75500;DHT22;64076;51.466;7.260;2023-02-11T03:36:37;20.80;34.00
75500;DHT22;64076;51.466;7.260;2023-02-11T03:39:20;20.80;34.00
75500;DHT22;64076;51.466;7.260;2023-02-11T03:41:47;20.80;34.00
75500;DHT22;64076;51.466;7.260;2023-02-11T03:44:15;20.80;34.00
75500;DHT22;64076;51.466;7.260;2023-02-11T03:46:44;20.80;34.00
75500;DHT22;64076;51.466;7.260;2023-02-11T03:49:14;20.80;34.00
75500;DHT22;64076;51.466;7.260;2023-02-11T03:51:42;20.80;34.00
75500;DHT22;64076;51.466;7.260;2023-02-11T03:54:10;20.80;34.00
75500;DHT22;64076;51.466;7.260;2023-02-11T03:56:51;20.90;34.00
75500;DHT22;64076;51.466;7.260;2023-02-11T03:59:17;20.80;34.00
75500;DHT22;64076;51.466;7.260;2023-02-11T04:01:43;20.80;34.00
75500;DHT22;64076;51.466;7.260;2023-02-11T04:04:09;20.80;34.10
75500;DHT22;64076;51.466;7.260;2023-02-11T04:06:34;20.80;34.10
75500;DHT22;64076;51.466;7.260;2023-02-11T04:09:00;20.80;34.10
75500;DHT22;64076;51.466;7.260;2023-02-11T04:11:25;20.80;34.00
75500;DHT22;64076;51.466;7.260;2023-02-11T04:13:51;20.80;34.10
75500;DHT22;64076;51.466;7.260;2023-02-11T04:16:16;20.80;34.10
75500;DHT22;64076;51.466;7.260;2023-02-11T04:18:42;20.80;34.10
75500;DHT22;64076;51.466;7.260;2023-02-11T04:21:07;20.80;34.10
75500;DHT22;64076;51.466;7.260;2023-02-11T04:23:34;20.80;34.10
75500;DHT22;64076;51.466;7.260;2023-02-11T04:25:59;20.80;34.10
75500;DHT22;64076;51.466;7.260;2023-02-11T04:28:25;20.80;34.10
75500;DHT22;64076;51.466;7.260;2023-02-11T04:30:54;20.80;34.10
75500;DHT22;64076;51.466;7.260;2023-02-11T04:33:19;20.80;34.20
75500;DHT22;64076;51.466;7.260;2023-02-11T04:35:45;20.80;34.20
75500;DHT22;64076;51.466;7.260;2023-02-11T04:38:10;20.80;34.20
75500;DHT22;64076;51.466;7.260;2023-02-11T04:40:36;20.80;34.20
75500;DHT22;64076;51.466;7.260;2023-02-11T04:43:02;20.80;34.20
75500;DHT22;64076;51.466;7.260;2023-02-11T04:45:27;20.80;34.20
75500;DHT22;64076;51.466;7.260;2023-02-11T04:47:53;20.80;34.30
75500;DHT22;64076;51.466;7.260;2023-02-11T04:50:18;20.80;34.30
75500;DHT22;64076;51.466;7.260;2023-02-11T04:52:44;20.80;34.30
75500;DHT22;64076;51.466;7.260;2023-02-11T04:55:10;20.80;34.30
75500;DHT22;64076;51.466;7.260;2023-02-11T04:57:36;20.80;34.40
75500;DHT22;64076;51.466;7.260;2023-02-11T05:00:03;20.80;34.40
75500;DHT22;64076;51.466;7.260;2023-02-11T05:02:29;20.80;34.40
75500;DHT22;64076;51.466;7.260;2023-02-11T05:04:55;20.80;34.40
75500;DHT22;64076;51.466;7.260;2023-02-11T05:07:20;20.80;34.50
75500;DHT22;64076;51.466;7.260;2023-02-11T05:09:46;20.80;34.50
75500;DHT22;64076;51.466;7.260;2023-02-11T05:12:11;20.80;34.50
75500;DHT22;64076;51.466;7.260;2023-02-11T05:14:37;20.80;34.60
75500;DHT22;64076;51.466;7.260;2023-02-11T05:17:02;20.80;34.60
75500;DHT22;64076;51.466;7.260;2023-02-11T05:19:28;20.80;34.60
75500;DHT22;64076;51.466;7.260;2023-02-11T05:21:55;20.80;34.60
75500;DHT22;64076;51.466;7.260;2023-02-11T05:24:21;20.80;34.60
75500;DHT22;64076;51.466;7.260;2023-02-11T05:26:46;20.80;34.60
75500;DHT22;64076;51.466;7.260;2023-02-11T05:29:12;20.80;34.60
75500;DHT22;64076;51.466;7.260;2023-02-11T05:31:37;20.80;34.70
75500;DHT22;64076;51.466;7.260;2023-02-11T05:34:02;20.80;34.70
75500;DHT22;64076;51.466;7.260;2023-02-11T05:36:28;20.80;34.70
75500;DHT22;64076;51.466;7.260;2023-02-11T05:38:54;20.80;34.70
75500;DHT22;64076;51.466;7.260;2023-02-11T05:41:19;20.80;34.80
75500;DHT22;64076;51.466;7.260;2023-02-11T05:43:47;20.80;34.80
75500;DHT22;64076;51.466;7.260;2023-02-11T05:46:16;20.80;34.80
75500;DHT22;64076;51.466;7.260;2023-02-11T05:48:42;20.80;34.80
75500;DHT22;64076;51.466;7.260;2023-02-11T05:51:07;20.80;34.80
75500;DHT22;64076;51.466;7.260;2023-02-11T05:53:33;20.80;34.80
75500;DHT22;64076;51.466;7.260;2023-02-11T05:55:58;20.80;34.80
75500;DHT22;64076;51.466;7.260;2023-02-11T05:58:24;20.80;34.90
75500;DHT22;64076;51.466;7.260;2023-02-11T06:00:49;20.80;34.90
75500;DHT22;64076;51.466;7.260;2023-02-11T06:03:15;20.80;34.90
75500;DHT22;64076;51.466;7.260;2023-02-11T06:05:42;20.80;34.90
75500;DHT22;64076;51.466;7.260;2023-02-11T06:08:07;20.70;34.90
75500;DHT22;64076;51.466;7.260;2023-02-11T06:10:33;20.70;34.90
75500;DHT22;64076;51.466;7.260;2023-02-11T06:13:00;20.70;35.00
75500;DHT22;64076;51.466;7.260;2023-02-11T06:15:25;20.80;35.10
75500;DHT22;64076;51.466;7.260;2023-02-11T06:17:51;20.80;35.30
75500;DHT22;64076;51.466;7.260;2023-02-11T06:20:17;20.80;35.40
75500;DHT22;64076;51.466;7.260;2023-02-11T06:22:42;20.80;35.40
75500;DHT22;64076;51.466;7.260;2023-02-11T06:25:08;20.80;35.50
75500;DHT22;64076;51.466;7.260;2023-02-11T06:27:35;20.80;35.60
75500;DHT22;64076;51.466;7.260;2023-02-11T06:30:01;20.90;35.60
75500;DHT22;64076;51.466;7.260;2023-02-11T06:32:27;20.90;35.60
75500;DHT22;64076;51.466;7.260;2023-02-11T06:34:53;20.90;35.70
75500;DHT22;64076;51.466;7.260;2023-02-11T06:37:18;20.90;35.80
75500;DHT22;64076;51.466;7.260;2023-02-11T06:39:44;20.90;35.90
75500;DHT22;64076;51.466;7.260;2023-02-11T06:42:09;21.00;35.90
75500;DHT22;64076;51.466;7.260;2023-02-11T06:44:35;21.00;35.90
75500;DHT22;64076;51.466;7.260;2023-02-11T06:47:00;21.00;35.90
75500;DHT22;64076;51.466;7.260;2023-02-11T06:49:26;21.00;36.00
75500;DHT22;64076;51.466;7.260;2023-02-11T06:51:51;21.00;36.10
75500;DHT22;64076;51.466;7.260;2023-02-11T06:54:17;21.00;36.00
75500;DHT22;64076;51.466;7.260;2023-02-11T06:56:42;21.00;36.00
75500;DHT22;64076;51.466;7.260;2023-02-11T06:59:14;21.00;36.10
75500;DHT22;64076;51.466;7.260;2023-02-11T07:01:40;21.00;36.10
75500;DHT22;64076;51.466;7.260;2023-02-11T07:04:06;21.10;36.10
75500;DHT22;64076;51.466;7.260;2023-02-11T07:06:32;21.10;36.20
75500;DHT22;64076;51.466;7.260;2023-02-11T07:08:58;21.10;36.20
75500;DHT22;64076;51.466;7.260;2023-02-11T07:11:26;21.10;36.20
75500;DHT22;64076;51.466;7.260;2023-02-11T07:13:54;21.10;36.30
75500;DHT22;64076;51.466;7.260;2023-02-11T07:16:20;21.10;36.20
75500;DHT22;64076;51.466;7.260;2023-02-11T07:18:47;21.10;36.30
75500;DHT22;64076;51.466;7.260;2023-02-11T07:21:15;21.10;36.30
75500;DHT22;64076;51.466;7.260;2023-02-11T07:23:41;21.10;36.30
75500;DHT22;64076;51.466;7.260;2023-02-11T07:26:12;21.10;36.30
75500;DHT22;64076;51.466;7.260;2023-02-11T07:28:38;21.10;36.30
75500;DHT22;64076;51.466;7.260;2023-02-11T07:33:40;21.10;36.40
75500;DHT22;64076;51.466;7.260;2023-02-11T07:36:07;21.10;36.40
75500;DHT22;64076;51.466;7.260;2023-02-11T07:38:34;21.10;36.40
75500;DHT22;64076;51.466;7.260;2023-02-11T07:43:30;21.20;36.50
75500;DHT22;64076;51.466;7.260;2023-02-11T07:45:56;21.10;36.50
75500;DHT22;64076;51.466;7.260;2023-02-11T07:48:21;21.20;36.60
75500;DHT22;64076;51.466;7.260;2023-02-11T07:50:47;21.20;36.60
75500;DHT22;64076;51.466;7.260;2023-02-11T07:53:12;21.20;36.50
75500;DHT22;64076;51.466;7.260;2023-02-11T07:55:38;21.20;36.60
75500;DHT22;64076;51.466;7.260;2023-02-11T07:58:03;21.20;36.60
75500;DHT22;64076;51.466;7.260;2023-02-11T08:00:29;21.20;36.60
75500;DHT22;64076;51.466;7.260;2023-02-11T08:02:56;21.20;36.60
75500;DHT22;64076;51.466;7.260;2023-02-11T08:05:22;21.20;36.60
75500;DHT22;64076;51.466;7.260;2023-02-11T08:07:53;21.20;36.70
75500;DHT22;64076;51.466;7.260;2023-02-11T08:10:19;21.20;36.70
75500;DHT22;64076;51.466;7.260;2023-02-11T08:12:45;21.20;36.70
75500;DHT22;64076;51.466;7.260;2023-02-11T08:15:11;21.20;36.70
75500;DHT22;64076;51.466;7.260;2023-02-11T08:17:36;21.20;36.70
75500;DHT22;64076;51.466;7.260;2023-02-11T08:20:05;21.20;36.70
75500;DHT22;64076;51.466;7.260;2023-02-11T08:22:32;21.20;36.70
75500;DHT22;64076;51.466;7.260;2023-02-11T08:24:58;21.20;36.80
75500;DHT22;64076;51.466;7.260;2023-02-11T08:27:24;21.20;36.70
75500;DHT22;64076;51.466;7.260;2023-02-11T08:29:53;21.20;36.70
75500;DHT22;64076;51.466;7.260;2023-02-11T08:32:19;21.30;36.80
75500;DHT22;64076;51.466;7.260;2023-02-11T08:34:45;21.30;36.90
75500;DHT22;64076;51.466;7.260;2023-02-11T08:37:14;21.30;36.80
75500;DHT22;64076;51.466;7.260;2023-02-11T08:39:40;21.30;36.80
75500;DHT22;64076;51.466;7.260;2023-02-11T08:42:05;21.30;36.80
75500;DHT22;64076;51.466;7.260;2023-02-11T08:44:31;21.30;36.80
75500;DHT22;64076;51.466;7.260;2023-02-11T08:46:56;21.30;36.90
75500;DHT22;64076;51.466;7.260;2023-02-11T08:49:22;21.30;36.90
75500;DHT22;64076;51.466;7.260;2023-02-11T08:51:48;21.30;36.90
75500;DHT22;64076;51.466;7.260;2023-02-11T08:54:14;21.30;36.90
75500;DHT22;64076;51.466;7.260;2023-02-11T08:56:40;21.30;36.90
75500;DHT22;64076;51.466;7.260;2023-02-11T08:59:06;21.30;36.90
75500;DHT22;64076;51.466;7.260;2023-02-11T09:01:33;21.30;36.90
75500;DHT22;64076;51.466;7.260;2023-02-11T09:03:59;21.30;36.90
75500;DHT22;64076;51.466;7.260;2023-02-11T09:06:26;21.30;36.90
75500;DHT22;64076;51.466;7.260;2023-02-11T09:08:53;21.30;36.90
75500;DHT22;64076;51.466;7.260;2023-02-11T09:11:23;21.30;36.90
75500;DHT22;64076;51.466;7.260;2023-02-11T09:13:50;21.30;36.90
75500;DHT22;64076;51.466;7.260;2023-02-11T09:18:49;21.30;37.00
75500;DHT22;64076;51.466;7.260;2023-02-11T09:21:16;21.30;37.00
75500;DHT22;64076;51.466;7.260;2023-02-11T09:23:42;21.30;37.00
75500;DHT22;64076;51.466;7.260;2023-02-11T09:26:18;21.30;37.10
75500;DHT22;64076;51.466;7.260;2023-02-11T09:28:45;21.30;37.10
75500;DHT22;64076;51.466;7.260;2023-02-11T09:31:13;21.30;37.10
75500;DHT22;64076;51.466;7.260;2023-02-11T09:33:40;21.30;37.10
75500;DHT22;64076;51.466;7.260;2023-02-11T09:36:13;21.30;37.10
75500;DHT22;64076;51.466;7.260;2023-02-11T09:38:38;21.30;37.10
75500;DHT22;64076;51.466;7.260;2023-02-11T09:41:04;21.30;37.10
75500;DHT22;64076;51.466;7.260;2023-02-11T09:46:03;21.30;37.20
75500;DHT22;64076;51.466;7.260;2023-02-11T09:51:02;21.40;37.10
75500;DHT22;64076;51.466;7.260;2023-02-11T09:53:31;21.40;37.10
75500;DHT22;64076;51.466;7.260;2023-02-11T09:56:01;21.40;37.10
75500;DHT22;64076;51.466;7.260;2023-02-11T09:58:32;21.40;37.20
75500;DHT22;64076;51.466;7.260;2023-02-11T10:11:44;21.40;37.30
75500;DHT22;64076;51.466;7.260;2023-02-11T10:19:56;21.40;37.30
75500;DHT22;64076;51.466;7.260;2023-02-11T10:22:35;21.40;37.30
75500;DHT22;64076;51.466;7.260;2023-02-11T10:25:25;21.40;37.30
75500;DHT22;64076;51.466;7.260;2023-02-11T10:27:51;21.40;37.30
75500;DHT22;64076;51.466;7.260;2023-02-11T10:30:27;21.40;37.30
75500;DHT22;64076;51.466;7.260;2023-02-11T10:33:03;21.40;37.30
75500;DHT22;64076;51.466;7.260;2023-02-11T10:35:31;21.40;37.30
75500;DHT22;64076;51.466;7.260;2023-02-11T10:37:58;21.40;37.40
75500;DHT22;64076;51.466;7.260;2023-02-11T10:40:26;21.40;37.40
75500;DHT22;64076;51.466;7.260;2023-02-11T10:42:54;21.40;37.30
75500;DHT22;64076;51.466;7.260;2023-02-11T10:45:33;21.40;37.40
75500;DHT22;64076;51.466;7.260;2023-02-11T10:48:02;21.40;37.40
75500;DHT22;64076;51.466;7.260;2023-02-11T10:50:30;21.40;37.40
75500;DHT22;64076;51.466;7.260;2023-02-11T10:53:16;21.40;37.40
75500;DHT22;64076;51.466;7.260;2023-02-11T10:55:55;21.50;37.40
75500;DHT22;64076;51.466;7.260;2023-02-11T10:58:30;21.50;37.50
75500;DHT22;64076;51.466;7.260;2023-02-11T11:00:58;21.50;37.50
75500;DHT22;64076;51.466;7.260;2023-02-11T11:03:26;21.40;37.50
75500;DHT22;64076;51.466;7.260;2023-02-11T11:06:05;21.40;37.50
75500;DHT22;64076;51.466;7.260;2023-02-11T11:14:01;21.50;37.50
75500;DHT22;64076;51.466;7.260;2023-02-11T11:16:35;21.50;37.50
75500;DHT22;64076;51.466;7.260;2023-02-11T11:21:41;21.50;37.60
75500;DHT22;64076;51.466;7.260;2023-02-11T11:24:17;21.50;37.60
75500;DHT22;64076;51.466;7.260;2023-02-11T11:26:49;21.50;37.60
75500;DHT22;64076;51.466;7.260;2023-02-11T11:29:19;21.50;37.60
75500;DHT22;64076;51.466;7.260;2023-02-11T11:31:58;21.50;37.60
75500;DHT22;64076;51.466;7.260;2023-02-11T11:34:40;21.50;37.70
75500;DHT22;64076;51.466;7.260;2023-02-11T11:37:28;21.50;37.70
75500;DHT22;64076;51.466;7.260;2023-02-11T11:42:30;21.50;37.60
75500;DHT22;64076;51.466;7.260;2023-02-11T11:55:26;21.50;37.70
75500;DHT22;64076;51.466;7.260;2023-02-11T11:57:53;21.50;37.70
75500;DHT22;64076;51.466;7.260;2023-02-11T12:03:12;21.50;37.70
75500;DHT22;64076;51.466;7.260;2023-02-11T12:11:01;21.50;37.80
75500;DHT22;64076;51.466;7.260;2023-02-11T12:22:04;21.50;37.80
75500;DHT22;64076;51.466;7.260;2023-02-11T12:24:37;21.50;37.90
75500;DHT22;64076;51.466;7.260;2023-02-11T12:32:38;21.50;37.90
75500;DHT22;64076;51.466;7.260;2023-02-11T12:38:18;21.50;38.00
75500;DHT22;64076;51.466;7.260;2023-02-11T12:41:03;21.60;38.00
75500;DHT22;64076;51.466;7.260;2023-02-11T12:43:38;21.50;37.90
75500;DHT22;64076;51.466;7.260;2023-02-11T12:54:41;21.50;38.10
75500;DHT22;64076;51.466;7.260;2023-02-11T12:57:24;21.50;38.00
75500;DHT22;64076;51.466;7.260;2023-02-11T12:59:57;21.60;38.10
75500;DHT22;64076;51.466;7.260;2023-02-11T13:05:28;21.60;38.00
75500;DHT22;64076;51.466;7.260;2023-02-11T13:10:34;21.60;38.10
75500;DHT22;64076;51.466;7.260;2023-02-11T13:13:04;21.60;38.10
75500;DHT22;64076;51.466;7.260;2023-02-11T13:20:52;21.60;38.10
75500;DHT22;64076;51.466;7.260;2023-02-11T13:23:38;21.60;38.20
75500;DHT22;64076;51.466;7.260;2023-02-11T13:26:36;21.60;38.20
75500;DHT22;64076;51.466;7.260;2023-02-11T13:44:32;21.60;38.30
75500;DHT22;64076;51.466;7.260;2023-02-11T13:47:04;21.60;38.20
75500;DHT22;64076;51.466;7.260;2023-02-11T13:49:35;21.60;38.30
75500;DHT22;64076;51.466;7.260;2023-02-11T13:54:38;21.60;38.30
75500;DHT22;64076;51.466;7.260;2023-02-11T14:31:34;21.60;38.30
75500;DHT22;64076;51.466;7.260;2023-02-11T14:36:55;21.60;38.50
75500;DHT22;64076;51.466;7.260;2023-02-11T14:41:54;21.60;38.50
75500;DHT22;64076;51.466;7.260;2023-02-11T14:46:55;21.60;38.40
75500;DHT22;64076;51.466;7.260;2023-02-11T14:49:28;21.60;38.50
75500;DHT22;64076;51.466;7.260;2023-02-11T14:51:59;21.60;38.50
75500;DHT22;64076;51.466;7.260;2023-02-11T14:54:28;21.60;38.50
75500;DHT22;64076;51.466;7.260;2023-02-11T14:59:32;21.70;38.50
75500;DHT22;64076;51.466;7.260;2023-02-11T15:01:57;21.70;38.50
75500;DHT22;64076;51.466;7.260;2023-02-11T15:07:02;21.70;38.50
75500;DHT22;64076;51.466;7.260;2023-02-11T15:09:33;21.60;38.50
75500;DHT22;64076;51.466;7.260;2023-02-11T15:12:02;21.60;38.50
75500;DHT22;64076;51.466;7.260;2023-02-11T15:14:32;21.70;38.50
75500;DHT22;64076;51.466;7.260;2023-02-11T15:19:35;21.70;38.50
75500;DHT22;64076;51.466;7.260;2023-02-11T16:30:36;21.70;38.40
75500;DHT22;64076;51.466;7.260;2023-02-11T20:03:32;21.60;38.50
75500;DHT22;64076;51.466;7.260;2023-02-11T20:05:58;21.10;38.40
75500;DHT22;64076;51.466;7.260;2023-02-11T20:08:23;21.20;38.40
75500;DHT22;64076;51.466;7.260;2023-02-11T20:10:49;21.10;38.40
75500;DHT22;64076;51.466;7.260;2023-02-11T20:13:15;21.10;38.50
75500;DHT22;64076;51.466;7.260;2023-02-11T20:15:40;21.10;38.40
75500;DHT22;64076;51.466;7.260;2023-02-11T20:18:06;21.10;38.40
75500;DHT22;64076;51.466;7.260;2023-02-11T20:20:31;21.10;38.50
75500;DHT22;64076;51.466;7.260;2023-02-11T20:22:57;21.10;38.40
75500;DHT22;64076;51.466;7.260;2023-02-11T20:25:23;21.10;38.40
75500;DHT22;64076;51.466;7.260;2023-02-11T20:27:48;21.10;38.50
75500;DHT22;64076;51.466;7.260;2023-02-11T20:30:14;21.10;38.40
75500;DHT22;64076;51.466;7.260;2023-02-11T20:32:40;21.10;38.40
75500;DHT22;64076;51.466;7.260;2023-02-11T20:35:07;21.10;38.50
75500;DHT22;64076;51.466;7.260;2023-02-11T20:37:32;21.10;38.50
75500;DHT22;64076;51.466;7.260;2023-02-11T20:39:58;21.10;38.50
75500;DHT22;64076;51.466;7.260;2023-02-11T20:42:25;21.10;38.50
75500;DHT22;64076;51.466;7.260;2023-02-11T20:44:50;21.10;38.40
75500;DHT22;64076;51.466;7.260;2023-02-11T20:47:16;21.10;38.50
75500;DHT22;64076;51.466;7.260;2023-02-11T20:49:41;21.10;38.50
75500;DHT22;64076;51.466;7.260;2023-02-11T20:52:07;21.10;38.50
75500;DHT22;64076;51.466;7.260;2023-02-11T20:54:33;21.10;38.50
75500;DHT22;64076;51.466;7.260;2023-02-11T20:56:59;21.10;38.40
75500;DHT22;64076;51.466;7.260;2023-02-11T20:59:27;21.10;38.50
75500;DHT22;64076;51.466;7.260;2023-02-11T21:01:54;21.10;38.50
75500;DHT22;64076;51.466;7.260;2023-02-11T21:06:56;21.10;38.50
75500;DHT22;64076;51.466;7.260;2023-02-11T21:09:24;21.10;38.50
75500;DHT22;64076;51.466;7.260;2023-02-11T21:11:51;21.10;38.50
75500;DHT22;64076;51.466;7.260;2023-02-11T21:14:17;21.10;38.50
75500;DHT22;64076;51.466;7.260;2023-02-11T21:16:44;21.10;38.50
75500;DHT22;64076;51.466;7.260;2023-02-11T21:19:09;21.10;38.50
75500;DHT22;64076;51.466;7.260;2023-02-11T21:21:36;21.10;38.50
75500;DHT22;64076;51.466;7.260;2023-02-11T21:24:03;21.10;38.50
75500;DHT22;64076;51.466;7.260;2023-02-11T21:26:28;21.10;38.50
75500;DHT22;64076;51.466;7.260;2023-02-11T21:28:54;21.10;38.50
75500;DHT22;64076;51.466;7.260;2023-02-11T21:31:26;21.10;38.50
75500;DHT22;64076;51.466;7.260;2023-02-11T21:33:52;21.10;38.50
75500;DHT22;64076;51.466;7.260;2023-02-11T21:36:20;21.10;38.60
75500;DHT22;64076;51.466;7.260;2023-02-11T21:38:46;21.10;38.60
75500;DHT22;64076;51.466;7.260;2023-02-11T21:41:12;21.10;38.60
75500;DHT22;64076;51.466;7.260;2023-02-11T21:43:38;21.10;38.60
75500;DHT22;64076;51.466;7.260;2023-02-11T21:48:39;21.10;38.60
75500;DHT22;64076;51.466;7.260;2023-02-11T21:51:07;21.10;38.60
75500;DHT22;64076;51.466;7.260;2023-02-11T21:53:33;21.10;38.60
75500;DHT22;64076;51.466;7.260;2023-02-11T21:58:44;21.10;38.60
75500;DHT22;64076;51.466;7.260;2023-02-11T22:01:15;21.10;38.60
75500;DHT22;64076;51.466;7.260;2023-02-11T22:03:42;21.10;38.70
75500;DHT22;64076;51.466;7.260;2023-02-11T22:06:11;21.00;38.60
75500;DHT22;64076;51.466;7.260;2023-02-11T22:08:37;21.10;38.70
75500;DHT22;64076;51.466;7.260;2023-02-11T22:13:33;21.10;38.70
75500;DHT22;64076;51.466;7.260;2023-02-11T22:16:01;21.10;38.70
75500;DHT22;64076;51.466;7.260;2023-02-11T22:18:27;21.10;38.70
75500;DHT22;64076;51.466;7.260;2023-02-11T22:23:28;21.10;38.70
75500;DHT22;64076;51.466;7.260;2023-02-11T22:25:53;21.10;38.60
75500;DHT22;64076;51.466;7.260;2023-02-11T22:28:19;21.10;38.70
75500;DHT22;64076;51.466;7.260;2023-02-11T22:30:44;21.10;38.70
75500;DHT22;64076;51.466;7.260;2023-02-11T22:33:10;21.10;38.70
75500;DHT22;64076;51.466;7.260;2023-02-11T22:35:35;21.10;38.70
75500;DHT22;64076;51.466;7.260;2023-02-11T22:38:01;21.10;38.70
75500;DHT22;64076;51.466;7.260;2023-02-11T22:40:26;21.10;38.60
75500;DHT22;64076;51.466;7.260;2023-02-11T22:42:52;21.10;38.70
75500;DHT22;64076;51.466;7.260;2023-02-11T22:45:17;21.10;38.70
75500;DHT22;64076;51.466;7.260;2023-02-11T22:47:43;21.10;38.70
75500;DHT22;64076;51.466;7.260;2023-02-11T22:50:09;21.10;38.70
75500;DHT22;64076;51.466;7.260;2023-02-11T22:52:35;21.10;38.70
75500;DHT22;64076;51.466;7.260;2023-02-11T22:55:03;21.10;38.70
75500;DHT22;64076;51.466;7.260;2023-02-11T22:57:29;21.10;38.70
75500;DHT22;64076;51.466;7.260;2023-02-11T22:59:55;21.10;38.70
75500;DHT22;64076;51.466;7.260;2023-02-11T23:02:20;21.10;38.70
75500;DHT22;64076;51.466;7.260;2023-02-11T23:04:45;21.10;38.70
75500;DHT22;64076;51.466;7.260;2023-02-11T23:07:11;21.00;38.70
75500;DHT22;64076;51.466;7.260;2023-02-11T23:09:37;21.00;38.70
75500;DHT22;64076;51.466;7.260;2023-02-11T23:12:03;21.00;38.70
75500;DHT22;64076;51.466;7.260;2023-02-11T23:14:28;21.00;38.70
75500;DHT22;64076;51.466;7.260;2023-02-11T23:16:54;21.00;38.70
75500;DHT22;64076;51.466;7.260;2023-02-11T23:19:19;21.00;38.70
75500;DHT22;64076;51.466;7.260;2023-02-11T23:21:45;21.00;38.80
75500;DHT22;64076;51.466;7.260;2023-02-11T23:24:14;21.00;38.70
75500;DHT22;64076;51.466;7.260;2023-02-11T23:26:41;21.00;38.80
75500;DHT22;64076;51.466;7.260;2023-02-11T23:29:07;21.00;38.80
75500;DHT22;64076;51.466;7.260;2023-02-11T23:31:35;21.00;38.80
75500;DHT22;64076;51.466;7.260;2023-02-11T23:34:02;21.00;38.70
75500;DHT22;64076;51.466;7.260;2023-02-11T23:36:30;21.00;38.80
75500;DHT22;64076;51.466;7.260;2023-02-11T23:38:56;21.00;38.80
75500;DHT22;64076;51.466;7.260;2023-02-11T23:41:22;21.00;38.80
75500;DHT22;64076;51.466;7.260;2023-02-11T23:43:49;21.00;38.80
75500;DHT22;64076;51.466;7.260;2023-02-11T23:46:15;21.00;38.80
75500;DHT22;64076;51.466;7.260;2023-02-11T23:48:41;21.00;38.80
75500;DHT22;64076;51.466;7.260;2023-02-11T23:51:07;21.00;38.80
75500;DHT22;64076;51.466;7.260;2023-02-11T23:53:34;21.00;38.80
75500;DHT22;64076;51.466;7.260;2023-02-11T23:56:04;21.00;38.80
75500;DHT22;64076;51.466;7.260;2023-02-11T23:58:29;21.00;38.80
